createdAt,value
2023-04-19T00:00:52.000Z,76.5
2023-04-19T00:02:09.000Z,76.6
2023-04-19T00:03:25.000Z,76.6
2023-04-19T00:04:41.000Z,76.7
2023-04-19T00:05:56.000Z,76.7
2023-04-19T00:07:12.000Z,76.9
2023-04-19T00:08:29.000Z,77
2023-04-19T00:09:45.000Z,76.9
2023-04-19T00:11:01.000Z,77
2023-04-19T00:12:17.000Z,77
2023-04-19T00:13:33.000Z,77
2023-04-19T00:14:49.000Z,77.1
2023-04-19T00:16:06.000Z,77.2
2023-04-19T00:17:22.000Z,77.3
2023-04-19T00:18:38.000Z,77.3
2023-04-19T00:19:54.000Z,77.3
2023-04-19T00:21:10.000Z,77.4
2023-04-19T00:22:26.000Z,77.4
2023-04-19T00:23:42.000Z,77.4
2023-04-19T00:24:58.000Z,77
2023-04-19T00:26:14.000Z,77.1
2023-04-19T00:27:30.000Z,77.2
2023-04-19T00:28:47.000Z,77.4
2023-04-19T00:30:03.000Z,77.5
2023-04-19T00:31:19.000Z,77.5
2023-04-19T00:32:35.000Z,77.6
2023-04-19T00:33:51.000Z,77.6
2023-04-19T00:35:08.000Z,77.6
2023-04-19T00:36:24.000Z,77.6
2023-04-19T00:37:40.000Z,77.7
2023-04-19T00:38:55.000Z,77.7
2023-04-19T00:40:11.000Z,77.6
2023-04-19T00:41:28.000Z,77.5
2023-04-19T00:42:44.000Z,77.4
2023-04-19T00:44:00.000Z,77.4
2023-04-19T00:45:16.000Z,77.4
2023-04-19T00:46:32.786Z,77.4
2023-04-19T00:47:49.000Z,77.4
2023-04-19T00:49:05.000Z,77.2
2023-04-19T00:50:21.000Z,77.2
2023-04-19T00:51:37.000Z,77.3
2023-04-19T00:52:53.000Z,77.1
2023-04-19T00:54:10.000Z,77.2
2023-04-19T00:55:25.224Z,77.2
2023-04-19T00:56:41.000Z,77.2
2023-04-19T00:57:57.000Z,77.3
2023-04-19T00:59:13.000Z,77.5
2023-04-19T01:00:29.000Z,77.5
2023-04-19T01:01:46.000Z,77.4
2023-04-19T01:03:02.000Z,77.3
2023-04-19T01:04:18.000Z,77.5
2023-04-19T01:05:34.000Z,77.5
2023-04-19T01:06:50.000Z,77.5
2023-04-19T01:08:07.000Z,77.6
2023-04-19T01:09:23.000Z,77.6
2023-04-19T01:10:39.000Z,77.6
2023-04-19T01:11:54.000Z,77.4
2023-04-19T01:13:10.000Z,77.4
2023-04-19T01:14:27.000Z,77.5
2023-04-19T01:15:43.000Z,77.4
2023-04-19T01:16:59.000Z,77.3
2023-04-19T01:18:15.000Z,77.2
2023-04-19T01:19:31.000Z,77.1
2023-04-19T01:20:48.000Z,77
2023-04-19T01:22:04.000Z,77.2
2023-04-19T01:23:20.000Z,77.2
2023-04-19T01:24:36.622Z,77.2
2023-04-19T01:25:52.000Z,77
2023-04-19T01:27:09.000Z,76.9
2023-04-19T01:28:24.000Z,76.9
2023-04-19T01:29:40.000Z,76.8
2023-04-19T01:30:56.000Z,76.8
2023-04-19T01:32:12.000Z,76.8
2023-04-19T01:33:29.000Z,76.5
2023-04-19T01:34:45.000Z,76.5
2023-04-19T01:36:01.000Z,75.9
2023-04-19T01:37:17.000Z,75.9
2023-04-19T01:38:33.000Z,76
2023-04-19T01:39:50.000Z,76.1
2023-04-19T01:41:06.000Z,75.9
2023-04-19T01:42:22.000Z,75.8
2023-04-19T01:43:38.000Z,75.8
2023-04-19T01:44:53.000Z,75.7
2023-04-19T01:46:10.000Z,75.4
2023-04-19T01:47:26.000Z,75.4
2023-04-19T01:48:42.000Z,75.5
2023-04-19T01:49:58.000Z,75.5
2023-04-19T01:51:14.000Z,75.3
2023-04-19T01:52:30.000Z,75.1
2023-04-19T01:53:47.000Z,74.8
2023-04-19T01:55:03.000Z,74.7
2023-04-19T01:56:19.000Z,74.3
2023-04-19T01:57:35.000Z,74
2023-04-19T01:58:51.000Z,74.2
2023-04-19T02:00:08.000Z,74.3
2023-04-19T02:01:23.000Z,74.3
2023-04-19T02:02:39.461Z,74
2023-04-19T02:03:55.000Z,73.8
2023-04-19T02:05:11.000Z,73.8
2023-04-19T02:06:28.000Z,74
2023-04-19T02:07:44.000Z,74.1
2023-04-19T02:09:00.000Z,74
2023-04-19T02:10:16.000Z,73.9
2023-04-19T02:11:32.000Z,73.9
2023-04-19T02:12:49.000Z,73.9
2023-04-19T02:14:05.000Z,73.9
2023-04-19T02:15:21.396Z,73.9
2023-04-19T02:16:37.000Z,74
2023-04-19T02:17:52.000Z,73.8
2023-04-19T02:19:09.000Z,73.8
2023-04-19T02:20:25.000Z,73.7
2023-04-19T02:21:41.000Z,73.8
2023-04-19T02:22:57.000Z,73.5
2023-04-19T02:24:13.000Z,73.4
2023-04-19T02:25:30.000Z,73.5
2023-04-19T02:26:46.000Z,73.3
2023-04-19T02:28:02.000Z,73
2023-04-19T02:29:18.000Z,72.8
2023-04-19T02:30:34.000Z,72.8
2023-04-19T02:31:50.000Z,72.4
2023-04-19T02:33:07.000Z,71.7
2023-04-19T02:34:22.000Z,71.6
2023-04-19T02:35:38.000Z,71.4
2023-04-19T02:36:54.000Z,71.4
2023-04-19T02:38:10.000Z,71.2
2023-04-19T02:39:27.000Z,71.1
2023-04-19T02:40:43.293Z,71
2023-04-19T02:41:59.000Z,70.8
2023-04-19T02:43:15.000Z,70.7
2023-04-19T02:44:31.000Z,70.5
2023-04-19T02:45:48.000Z,70.4
2023-04-19T02:47:04.000Z,70.3
2023-04-19T02:48:20.000Z,69.9
2023-04-19T02:49:36.000Z,69.8
2023-04-19T02:50:51.000Z,69.9
2023-04-19T02:52:08.000Z,69.7
2023-04-19T02:53:24.238Z,69.3
2023-04-19T02:54:40.000Z,69.6
2023-04-19T02:55:56.000Z,69.5
2023-04-19T02:57:12.000Z,68.8
2023-04-19T02:58:28.000Z,69
2023-04-19T02:59:44.000Z,68.7
2023-04-19T03:01:00.000Z,68.2
2023-04-19T03:02:16.000Z,68.1
2023-04-19T03:03:32.000Z,68
2023-04-19T03:04:49.000Z,67.3
2023-04-19T03:06:05.000Z,67.3
2023-04-19T03:07:21.000Z,67.3
2023-04-19T03:08:37.000Z,66.5
2023-04-19T03:09:53.000Z,66
2023-04-19T03:11:10.000Z,65.4
2023-04-19T03:12:26.000Z,65.5
2023-04-19T03:13:42.000Z,65.3
2023-04-19T03:14:57.000Z,64.9
2023-04-19T03:16:13.000Z,64.1
2023-04-19T03:17:30.000Z,63.6
2023-04-19T03:18:46.158Z,63.9
2023-04-19T03:20:02.000Z,63.8
2023-04-19T03:21:18.000Z,63.3
2023-04-19T03:22:34.000Z,63.1
2023-04-19T03:23:50.000Z,62.2
2023-04-19T03:25:07.000Z,61.6
2023-04-19T03:26:23.000Z,61
2023-04-19T03:27:39.000Z,60.2
2023-04-19T03:28:55.000Z,59.9
2023-04-19T03:30:11.000Z,59.7
2023-04-19T03:31:27.000Z,59.2
2023-04-19T03:32:43.000Z,59.3
2023-04-19T03:33:59.000Z,59.1
2023-04-19T03:35:15.000Z,58
2023-04-19T03:36:31.000Z,57.8
2023-04-19T03:37:48.000Z,57.6
2023-04-19T03:39:04.000Z,57
2023-04-19T03:40:20.000Z,56.6
2023-04-19T03:41:36.000Z,56.6
2023-04-19T03:42:52.000Z,56.4
2023-04-19T03:44:09.000Z,56.5
2023-04-19T03:45:25.000Z,56.9
2023-04-19T03:46:41.000Z,57.3
2023-04-19T03:47:56.000Z,57.6
2023-04-19T03:49:12.000Z,57.8
2023-04-19T03:50:29.000Z,58.2
2023-04-19T03:51:45.000Z,58.6
2023-04-19T03:53:01.000Z,58.9
2023-04-19T03:54:17.000Z,59.2
2023-04-19T03:55:33.000Z,59.3
2023-04-19T03:56:49.982Z,59.5
2023-04-19T03:58:06.000Z,59.8
2023-04-19T03:59:22.000Z,60.1
2023-04-19T04:00:38.000Z,60.4
2023-04-19T04:01:54.000Z,60.7
2023-04-19T04:03:11.000Z,60.7
2023-04-19T04:04:26.000Z,60.8
2023-04-19T04:05:42.000Z,60.8
2023-04-19T04:06:58.000Z,60.4
2023-04-19T04:08:14.000Z,59.8
2023-04-19T04:09:30.919Z,59.9
2023-04-19T04:10:47.000Z,60.1
2023-04-19T04:12:03.000Z,59.9
2023-04-19T04:13:19.000Z,60.4
2023-04-19T04:14:35.000Z,60.1
2023-04-19T04:15:51.000Z,60.4
2023-04-19T04:17:08.000Z,60.6
2023-04-19T04:18:24.000Z,60.6
2023-04-19T04:19:40.000Z,60.6
2023-04-19T04:20:55.000Z,60.3
2023-04-19T04:22:11.000Z,60.1
2023-04-19T04:23:28.000Z,60.3
2023-04-19T04:24:44.000Z,60.4
2023-04-19T04:26:00.000Z,60.2
2023-04-19T04:27:16.000Z,59.9
2023-04-19T04:28:32.000Z,59.4
2023-04-19T04:29:49.000Z,59.6
2023-04-19T04:31:05.000Z,59.9
2023-04-19T04:32:21.000Z,59.9
2023-04-19T04:33:37.000Z,60
2023-04-19T04:34:53.803Z,60.3
2023-04-19T04:36:10.000Z,60.1
2023-04-19T04:37:25.000Z,59.8
2023-04-19T04:38:41.000Z,59.8
2023-04-19T04:39:57.607Z,59.7
2023-04-19T04:41:13.000Z,59.6
2023-04-19T04:42:30.000Z,59.3
2023-04-19T04:43:46.000Z,59.2
2023-04-19T04:45:02.000Z,58.9
2023-04-19T04:46:18.000Z,58.7
2023-04-19T04:47:34.772Z,59
2023-04-19T04:48:51.000Z,59.1
2023-04-19T04:50:07.000Z,59
2023-04-19T04:51:23.000Z,58.8
2023-04-19T04:52:39.000Z,58.5
2023-04-19T04:53:54.000Z,58.4
2023-04-19T04:55:11.000Z,58.2
2023-04-19T04:56:27.000Z,57.9
2023-04-19T04:57:43.328Z,58.4
2023-04-19T04:58:59.000Z,58.5
2023-04-19T05:00:15.711Z,58.1
2023-04-19T05:01:31.000Z,58.2
2023-04-19T05:02:48.000Z,57.7
2023-04-19T05:04:04.000Z,57.6
2023-04-19T05:05:20.000Z,57
2023-04-19T05:06:36.000Z,57.3
2023-04-19T05:07:52.000Z,56.9
2023-04-19T05:09:09.000Z,57.3
2023-04-19T05:10:24.000Z,57.2
2023-04-19T05:11:40.000Z,57.3
2023-04-19T05:12:56.000Z,56.9
2023-04-19T05:14:12.000Z,57.2
2023-04-19T05:15:29.000Z,57.2
2023-04-19T05:16:45.000Z,56.8
2023-04-19T05:18:01.000Z,56.5
2023-04-19T05:19:17.000Z,56.6
2023-04-19T05:20:33.000Z,56.6
2023-04-19T05:21:50.000Z,56.7
2023-04-19T05:23:06.000Z,56.6
2023-04-19T05:24:22.000Z,56.7
2023-04-19T05:25:38.610Z,56.8
2023-04-19T05:26:53.000Z,56.7
2023-04-19T05:28:10.000Z,56.4
2023-04-19T05:29:26.000Z,56.7
2023-04-19T05:30:42.000Z,56.6
2023-04-19T05:31:58.000Z,56.7
2023-04-19T05:33:14.000Z,56.3
2023-04-19T05:34:31.000Z,56.5
2023-04-19T05:35:47.000Z,56.7
2023-04-19T05:37:03.000Z,56.9
2023-04-19T05:38:19.000Z,57.1
2023-04-19T05:39:35.000Z,57.2
2023-04-19T05:40:52.000Z,56.9
2023-04-19T05:42:08.000Z,56.6
2023-04-19T05:43:23.000Z,56.2
2023-04-19T05:44:39.000Z,56.4
2023-04-19T05:45:55.000Z,56.1
2023-04-19T05:47:12.000Z,56.2
2023-04-19T05:48:28.000Z,56.2
2023-04-19T05:49:44.000Z,55
2023-04-19T05:51:00.512Z,52.8
2023-04-19T05:52:16.000Z,49.9
2023-04-19T05:53:32.000Z,48.3
2023-04-19T05:54:49.000Z,46.8
2023-04-19T05:56:05.000Z,46.2
2023-04-19T05:57:21.000Z,46.3
2023-04-19T05:58:37.000Z,45.5
2023-04-19T05:59:52.000Z,45.5
2023-04-19T06:01:09.000Z,46
2023-04-19T06:02:25.000Z,45.5
2023-04-19T06:03:41.452Z,44.8
2023-04-19T06:04:57.000Z,44.3
2023-04-19T06:06:13.000Z,44.3
2023-04-19T06:07:30.000Z,45.1
2023-04-19T06:08:46.000Z,44.9
2023-04-19T06:10:02.000Z,44.3
2023-04-19T06:11:18.000Z,43.9
2023-04-19T06:12:34.000Z,43.6
2023-04-19T06:13:51.000Z,44.3
2023-04-19T06:15:07.000Z,44.1
2023-04-19T06:16:22.000Z,45.2
2023-04-19T06:17:38.000Z,44.6
2023-04-19T06:18:54.000Z,44.3
2023-04-19T06:20:11.000Z,45
2023-04-19T06:21:27.000Z,45.3
2023-04-19T06:22:43.000Z,45.5
2023-04-19T06:23:59.000Z,45.7
2023-04-19T06:25:15.000Z,46.3
2023-04-19T06:26:32.000Z,45.9
2023-04-19T06:27:48.000Z,45.1
2023-04-19T06:29:04.000Z,44.1
2023-04-19T06:30:20.000Z,43.9
2023-04-19T06:31:36.000Z,44.2
2023-04-19T06:32:52.000Z,44.3
2023-04-19T06:34:08.000Z,44.5
2023-04-19T06:35:24.000Z,43.7
2023-04-19T06:36:40.000Z,42.7
2023-04-19T06:37:56.000Z,42.3
2023-04-19T06:39:12.000Z,42.1
2023-04-19T06:40:29.000Z,41.6
2023-04-19T06:41:45.000Z,40.6
2023-04-19T06:43:01.000Z,40.3
2023-04-19T06:44:17.000Z,39.2
2023-04-19T06:45:33.000Z,39.5
2023-04-19T06:46:50.000Z,39.9
2023-04-19T06:48:06.000Z,39.1
2023-04-19T06:49:21.000Z,38.2
2023-04-19T06:50:37.000Z,36.9
2023-04-19T06:51:53.000Z,36.1
2023-04-19T06:53:10.000Z,35.2
2023-04-19T06:54:26.263Z,34.9
2023-04-19T06:55:42.000Z,34.1
2023-04-19T06:56:58.000Z,35.2
2023-04-19T06:58:14.000Z,35.9
2023-04-19T06:59:31.000Z,34.5
2023-04-19T07:00:47.000Z,34.2
2023-04-19T07:02:03.000Z,33.4
2023-04-19T07:03:19.000Z,34.2
2023-04-19T07:04:35.000Z,34.7
2023-04-19T07:05:51.000Z,37
2023-04-19T07:07:07.000Z,37.8
2023-04-19T07:08:23.000Z,36.7
2023-04-19T07:09:39.000Z,35.4
2023-04-19T07:10:55.000Z,34.6
2023-04-19T07:12:12.000Z,33.5
2023-04-19T07:13:27.000Z,33.2
2023-04-19T07:14:43.000Z,33.3
2023-04-19T07:15:59.623Z,33.2
2023-04-19T07:17:15.000Z,33.1
2023-04-19T07:18:32.000Z,32.6
2023-04-19T07:19:48.000Z,32.4
2023-04-19T07:21:04.000Z,32.8
2023-04-19T07:22:20.000Z,33.3
2023-04-19T07:23:36.000Z,34
2023-04-19T07:24:53.000Z,33.3
2023-04-19T07:26:09.000Z,33.6
2023-04-19T07:27:25.000Z,34.3
2023-04-19T07:28:41.000Z,34.4
2023-04-19T07:29:56.000Z,33.8
2023-04-19T07:31:13.000Z,35
2023-04-19T07:32:29.000Z,36.2
2023-04-19T07:33:45.000Z,35.7
2023-04-19T07:35:01.000Z,35.1
2023-04-19T07:36:17.000Z,34.2
2023-04-19T07:37:34.000Z,33.9
2023-04-19T07:38:50.000Z,35.5
2023-04-19T07:40:06.000Z,35.4
2023-04-19T07:41:22.000Z,35.5
2023-04-19T07:42:38.000Z,34.7
2023-04-19T07:43:55.000Z,33.2
2023-04-19T07:45:11.000Z,32.1
2023-04-19T07:46:26.000Z,31.7
2023-04-19T07:47:42.000Z,30.6
2023-04-19T07:48:58.000Z,30.6
2023-04-19T07:50:15.000Z,29.9
2023-04-19T07:51:31.186Z,31.3
2023-04-19T07:52:47.000Z,31
2023-04-19T07:54:03.000Z,31.5
2023-04-19T07:55:19.000Z,32.1
2023-04-19T07:56:35.981Z,32.3
2023-04-19T07:57:52.000Z,31.8
2023-04-19T07:59:08.000Z,32
2023-04-19T08:00:24.000Z,31.5
2023-04-19T08:01:40.000Z,31.6
2023-04-19T08:02:56.000Z,31.7
2023-04-19T08:04:12.000Z,31.2
2023-04-19T08:05:28.000Z,32.4
2023-04-19T08:06:44.000Z,32.7
2023-04-19T08:08:00.000Z,32.8
2023-04-19T08:09:17.000Z,32.2
2023-04-19T08:10:33.169Z,31.9
2023-04-19T08:11:49.000Z,31.9
2023-04-19T08:13:05.574Z,32.1
2023-04-19T08:14:21.000Z,31.1
2023-04-19T08:15:38.000Z,30.8
2023-04-19T08:16:54.000Z,30.3
2023-04-19T08:18:10.000Z,30
2023-04-19T08:19:25.000Z,30.2
2023-04-19T08:20:41.000Z,29.4
2023-04-19T08:21:58.000Z,29.8
2023-04-19T08:23:14.000Z,29.6
2023-04-19T08:24:30.000Z,29.3
2023-04-19T08:25:46.000Z,30.8
2023-04-19T08:27:02.000Z,30.8
2023-04-19T08:28:19.000Z,30.6
2023-04-19T08:29:35.000Z,31.4
2023-04-19T08:30:51.000Z,31.5
2023-04-19T08:32:07.000Z,31.4
2023-04-19T08:33:23.000Z,31.8
2023-04-19T08:34:40.000Z,31.4
2023-04-19T08:35:55.000Z,30.4
2023-04-19T08:37:11.000Z,30.4
2023-04-19T08:38:27.000Z,31.3
2023-04-19T08:39:43.000Z,31.2
2023-04-19T08:41:00.000Z,31.5
2023-04-19T08:42:16.000Z,31.3
2023-04-19T08:43:32.000Z,30.8
2023-04-19T08:44:48.000Z,30.8
2023-04-19T08:46:04.000Z,29.8
2023-04-19T08:47:21.000Z,29.8
2023-04-19T08:48:37.128Z,30.7
2023-04-19T08:49:53.000Z,31.8
2023-04-19T08:51:09.000Z,32
2023-04-19T08:52:24.000Z,31.8
2023-04-19T08:53:41.000Z,32.4
2023-04-19T08:54:57.000Z,32.4
2023-04-19T08:56:13.000Z,32.3
2023-04-19T08:57:29.000Z,31.8
2023-04-19T08:58:45.000Z,31.9
2023-04-19T09:00:01.000Z,31.8
2023-04-19T09:01:18.101Z,32.3
2023-04-19T09:02:34.000Z,32.5
2023-04-19T09:03:50.000Z,33.3
2023-04-19T09:05:06.000Z,33.4
2023-04-19T09:06:22.000Z,33.6
2023-04-19T09:07:39.000Z,33.3
2023-04-19T09:08:54.000Z,32.6
2023-04-19T09:10:10.000Z,32.4
2023-04-19T09:11:26.000Z,32.3
2023-04-19T09:12:42.000Z,31
2023-04-19T09:13:59.000Z,31.4
2023-04-19T09:15:15.000Z,30.9
2023-04-19T09:16:31.000Z,31.6
2023-04-19T09:17:47.000Z,31.8
2023-04-19T09:19:03.000Z,31.5
2023-04-19T09:20:20.000Z,31.2
2023-04-19T09:21:36.000Z,32
2023-04-19T09:22:52.000Z,32.4
2023-04-19T09:24:08.000Z,32.3
2023-04-19T09:25:23.000Z,32.7
2023-04-19T09:26:40.045Z,32.6
2023-04-19T09:27:56.000Z,33
2023-04-19T09:29:12.000Z,32.9
2023-04-19T09:30:28.000Z,33
2023-04-19T09:31:44.000Z,32.4
2023-04-19T09:33:01.000Z,31.6
2023-04-19T09:34:17.000Z,30.3
2023-04-19T09:35:33.000Z,31.1
2023-04-19T09:36:49.000Z,30.9
2023-04-19T09:38:05.000Z,30.5
2023-04-19T09:39:22.000Z,30.1
2023-04-19T09:40:38.000Z,30.6
2023-04-19T09:41:53.000Z,31
2023-04-19T09:43:09.000Z,31.5
2023-04-19T09:44:25.000Z,31.4
2023-04-19T09:45:42.000Z,31.6
2023-04-19T09:46:58.176Z,31.8
2023-04-19T09:48:14.000Z,32.1
2023-04-19T09:49:30.000Z,32
2023-04-19T09:50:46.000Z,32.4
2023-04-19T09:52:03.000Z,32.1
2023-04-19T09:53:19.000Z,32.2
2023-04-19T09:54:35.000Z,32.7
2023-04-19T09:55:51.000Z,33.1
2023-04-19T09:57:07.000Z,33.9
2023-04-19T09:58:23.000Z,34.1
2023-04-19T09:59:39.000Z,34.2
2023-04-19T10:00:55.000Z,33.8
2023-04-19T10:02:11.000Z,34.3
2023-04-19T10:03:27.000Z,33.4
2023-04-19T10:04:44.000Z,32.4
2023-04-19T10:06:00.000Z,32.2
2023-04-19T10:07:16.000Z,33
2023-04-19T10:08:32.000Z,33.6
2023-04-19T10:09:48.000Z,33.4
2023-04-19T10:11:05.000Z,31.9
2023-04-19T10:12:21.000Z,31.8
2023-04-19T10:13:37.000Z,32.1
2023-04-19T10:14:52.000Z,32.7
2023-04-19T10:16:08.000Z,33.6
2023-04-19T10:17:24.000Z,33.9
2023-04-19T10:18:41.000Z,33.4
2023-04-19T10:19:57.000Z,32.8
2023-04-19T10:21:13.000Z,32.1
2023-04-19T10:22:29.000Z,32.5
2023-04-19T10:23:45.000Z,32.9
2023-04-19T10:25:02.000Z,33
2023-04-19T10:26:18.000Z,33
2023-04-19T10:27:34.000Z,33.3
2023-04-19T10:28:50.000Z,33.6
2023-04-19T10:30:06.928Z,33.9
2023-04-19T10:31:22.000Z,34.2
2023-04-19T10:32:38.000Z,34.2
2023-04-19T10:33:54.000Z,34.4
2023-04-19T10:35:10.000Z,34.5
2023-04-19T10:36:26.000Z,34.8
2023-04-19T10:37:43.000Z,35
2023-04-19T10:38:59.000Z,35.4
2023-04-19T10:40:15.000Z,34.9
2023-04-19T10:41:31.000Z,35.3
2023-04-19T10:42:47.000Z,35
2023-04-19T10:44:04.000Z,35
2023-04-19T10:45:20.000Z,35
2023-04-19T10:46:36.000Z,35
2023-04-19T10:47:51.000Z,35.3
2023-04-19T10:49:07.000Z,35.6
2023-04-19T10:50:24.000Z,35.5
2023-04-19T10:51:40.000Z,35
2023-04-19T10:52:56.000Z,35.1
2023-04-19T10:54:12.000Z,35.6
2023-04-19T10:55:28.847Z,35.5
2023-04-19T10:56:45.000Z,35.3
2023-04-19T10:58:01.000Z,35.7
2023-04-19T10:59:17.000Z,35.8
2023-04-19T11:00:33.000Z,35.1
2023-04-19T11:01:49.000Z,35
2023-04-19T11:03:06.000Z,34.6
2023-04-19T11:04:21.227Z,35.1
2023-04-19T11:05:37.000Z,35.1
2023-04-19T11:06:53.000Z,34.9
2023-04-19T11:08:09.000Z,33.7
2023-04-19T11:09:26.000Z,33.4
2023-04-19T11:10:42.000Z,31.8
2023-04-19T11:11:58.000Z,32
2023-04-19T11:13:14.000Z,32.8
2023-04-19T11:14:30.000Z,32.5
2023-04-19T11:15:47.000Z,33
2023-04-19T11:17:03.000Z,33.4
2023-04-19T11:18:19.000Z,33.2
2023-04-19T11:19:35.000Z,33.6
2023-04-19T11:20:50.000Z,33.2
2023-04-19T11:22:07.000Z,33.5
2023-04-19T11:23:23.000Z,33.3
2023-04-19T11:24:39.000Z,33.4
2023-04-19T11:25:55.000Z,33.9
2023-04-19T11:27:11.000Z,34
2023-04-19T11:28:27.000Z,33.8
2023-04-19T11:29:43.000Z,33.9
2023-04-19T11:30:59.000Z,34.1
2023-04-19T11:32:15.000Z,34.2
2023-04-19T11:33:31.765Z,33.9
2023-04-19T11:34:47.000Z,33.5
2023-04-19T11:36:04.000Z,33.8
2023-04-19T11:37:20.000Z,33.5
2023-04-19T11:38:36.000Z,33.2
2023-04-19T11:39:52.000Z,33
2023-04-19T11:41:08.000Z,33.3
2023-04-19T11:42:25.000Z,33.5
2023-04-19T11:43:41.328Z,33.7
2023-04-19T11:44:56.000Z,34
2023-04-19T11:46:12.000Z,34.7
2023-04-19T11:47:28.920Z,34.4
2023-04-19T11:48:45.000Z,34.6
2023-04-19T11:50:01.000Z,35
2023-04-19T11:51:17.000Z,34.9
2023-04-19T11:52:33.000Z,35.1
2023-04-19T11:53:49.000Z,33.4
2023-04-19T11:55:06.000Z,33.4
2023-04-19T11:56:22.000Z,32.4
2023-04-19T11:57:38.000Z,33.3
2023-04-19T11:58:54.000Z,33.8
2023-04-19T12:00:10.000Z,33.8
2023-04-19T12:01:26.000Z,33.9
2023-04-19T12:02:42.000Z,33.9
2023-04-19T12:03:58.000Z,33.9
2023-04-19T12:05:14.000Z,34.2
2023-04-19T12:06:30.000Z,34.7
2023-04-19T12:07:47.000Z,34.8
2023-04-19T12:09:03.000Z,35
2023-04-19T12:10:19.000Z,35.4
2023-04-19T12:11:35.660Z,35.4
2023-04-19T12:12:51.000Z,35.3
2023-04-19T12:14:08.000Z,35.7
2023-04-19T12:15:24.000Z,35.6
2023-04-19T12:16:40.000Z,35.9
2023-04-19T12:17:55.000Z,36.3
2023-04-19T12:19:11.000Z,36.5
2023-04-19T12:20:28.000Z,36.3
2023-04-19T12:21:44.000Z,36.1
2023-04-19T12:23:00.000Z,36.6
2023-04-19T12:24:16.000Z,36.7
2023-04-19T12:25:32.000Z,36.1
2023-04-19T12:26:49.000Z,36.1
2023-04-19T12:28:05.000Z,35.6
2023-04-19T12:29:21.000Z,35
2023-04-19T12:30:37.000Z,34.1
2023-04-19T12:31:53.000Z,33.5
2023-04-19T12:33:10.000Z,32.7
2023-04-19T12:34:25.000Z,33
2023-04-19T12:35:41.000Z,32.9
2023-04-19T12:36:57.589Z,33.2
2023-04-19T12:38:13.000Z,33.1
2023-04-19T12:39:30.000Z,34
2023-04-19T12:40:46.000Z,33.9
2023-04-19T12:42:02.000Z,33.9
2023-04-19T12:43:18.000Z,33.3
2023-04-19T12:44:34.000Z,33.3
2023-04-19T12:45:50.000Z,33.3
2023-04-19T12:47:07.000Z,33.5
2023-04-19T12:48:23.000Z,33.8
2023-04-19T12:49:39.000Z,33.6
2023-04-19T12:50:54.000Z,33
2023-04-19T12:52:10.000Z,32.4
2023-04-19T12:53:27.000Z,32.5
2023-04-19T12:54:43.000Z,32.4
2023-04-19T12:55:59.000Z,32.9
2023-04-19T12:57:15.739Z,33.2
2023-04-19T12:58:31.000Z,33.2
2023-04-19T12:59:48.000Z,33.4
2023-04-19T13:01:04.000Z,33.6
2023-04-19T13:02:20.000Z,33.8
2023-04-19T13:03:36.000Z,33.3
2023-04-19T13:04:52.000Z,33.5
2023-04-19T13:06:09.000Z,33.8
2023-04-19T13:07:24.000Z,33.6
2023-04-19T13:08:40.000Z,33.7
2023-04-19T13:09:56.000Z,33.8
2023-04-19T13:11:12.000Z,33.5
2023-04-19T13:12:29.000Z,33.5
2023-04-19T13:13:45.000Z,33.5
2023-04-19T13:15:01.000Z,34.1
2023-04-19T13:16:17.000Z,34.5
2023-04-19T13:17:33.000Z,34.7
2023-04-19T13:18:50.000Z,34.6
2023-04-19T13:20:06.000Z,34.2
2023-04-19T13:21:22.000Z,34.3
2023-04-19T13:22:38.000Z,34.6
2023-04-19T13:23:53.000Z,34.5
2023-04-19T13:25:10.000Z,34.7
2023-04-19T13:26:26.000Z,34.4
2023-04-19T13:27:42.000Z,34.2
2023-04-19T13:28:58.000Z,34
2023-04-19T13:30:14.000Z,33.7
2023-04-19T13:31:31.000Z,33.8
2023-04-19T13:32:47.000Z,34
2023-04-19T13:34:03.000Z,34.4
2023-04-19T13:35:19.000Z,34.3
2023-04-19T13:36:35.000Z,34.5
2023-04-19T13:37:52.000Z,34.5
2023-04-19T13:39:08.000Z,35
2023-04-19T13:40:23.000Z,34.8
2023-04-19T13:41:39.000Z,34.7
2023-04-19T13:42:55.000Z,34.6
2023-04-19T13:44:12.000Z,34.9
2023-04-19T13:45:28.000Z,35
2023-04-19T13:46:44.000Z,34.5
2023-04-19T13:48:00.000Z,34.4
2023-04-19T13:49:16.000Z,34.4
2023-04-19T13:50:33.000Z,33.8
2023-04-19T13:51:49.000Z,33.6
2023-04-19T13:53:05.000Z,33.6
2023-04-19T13:54:21.000Z,34
2023-04-19T13:55:37.000Z,34
2023-04-19T13:56:53.000Z,33.6
2023-04-19T13:58:09.000Z,33.1
2023-04-19T13:59:25.000Z,32.9
2023-04-19T14:00:41.000Z,32.9
2023-04-19T14:01:57.000Z,33.1
2023-04-19T14:03:14.000Z,33.1
2023-04-19T14:04:30.000Z,31.9
2023-04-19T14:05:46.000Z,31.7
2023-04-19T14:07:02.000Z,30.7
2023-04-19T14:08:18.000Z,30.8
2023-04-19T14:09:34.000Z,31
2023-04-19T14:10:51.000Z,30.8
2023-04-19T14:12:07.000Z,31.1
2023-04-19T14:13:22.000Z,31.3
2023-04-19T14:14:38.752Z,30.8
2023-04-19T14:15:54.000Z,30.4
2023-04-19T14:17:11.000Z,30.5
2023-04-19T14:18:27.337Z,29.8
2023-04-19T14:19:43.000Z,29.4
2023-04-19T14:20:59.000Z,29.1
2023-04-19T14:22:15.000Z,29.4
2023-04-19T14:23:32.000Z,29.4
2023-04-19T14:24:48.000Z,29.6
2023-04-19T14:26:04.000Z,29.8
2023-04-19T14:27:20.000Z,29.6
2023-04-19T14:28:36.000Z,29.3
2023-04-19T14:29:52.000Z,29.1
2023-04-19T14:31:08.000Z,29.4
2023-04-19T14:32:24.000Z,28.9
2023-04-19T14:33:40.000Z,29.2
2023-04-19T14:34:56.000Z,29.2
2023-04-19T14:36:13.000Z,29.2
2023-04-19T14:37:29.000Z,29.3
2023-04-19T14:38:45.466Z,29.5
2023-04-19T14:40:01.000Z,29.6
2023-04-19T14:41:17.000Z,29.8
2023-04-19T14:42:34.000Z,29.2
2023-04-19T14:43:50.000Z,29.9
2023-04-19T14:45:06.000Z,29.7
2023-04-19T14:46:21.000Z,29.8
2023-04-19T14:47:37.000Z,29.4
2023-04-19T14:48:54.000Z,29.4
2023-04-19T14:50:10.000Z,29.1
2023-04-19T14:51:26.000Z,28.8
2023-04-19T14:52:42.000Z,29.3
2023-04-19T14:53:58.841Z,29.6
2023-04-19T14:55:15.000Z,29.7
2023-04-19T14:56:31.232Z,30.1
2023-04-19T14:57:47.000Z,30.7
2023-04-19T14:59:03.000Z,30.9
2023-04-19T15:00:19.000Z,30.9
2023-04-19T15:01:36.000Z,30.8
2023-04-19T15:02:51.000Z,30.9
2023-04-19T15:04:07.000Z,30.8
2023-04-19T15:05:23.000Z,30.8
2023-04-19T15:06:39.000Z,30.6
2023-04-19T15:07:56.000Z,30.1
2023-04-19T15:09:12.000Z,29.9
2023-04-19T15:10:28.000Z,30.3
2023-04-19T15:11:44.000Z,30.5
2023-04-19T15:13:00.000Z,30.5
2023-04-19T15:14:17.000Z,30.8
2023-04-19T15:15:33.188Z,30.9
2023-04-19T15:16:49.000Z,30.7
2023-04-19T15:18:05.574Z,30.7
2023-04-19T15:19:20.000Z,30.2
2023-04-19T15:20:37.000Z,29.8
2023-04-19T15:21:53.000Z,29.8
2023-04-19T15:23:09.000Z,29.8
2023-04-19T15:24:25.000Z,29.5
2023-04-19T15:25:41.000Z,29.7
2023-04-19T15:26:57.000Z,29.7
2023-04-19T15:28:14.000Z,29.9
2023-04-19T15:29:30.000Z,29.8
2023-04-19T15:30:46.000Z,29.7
2023-04-19T15:32:02.000Z,29.6
2023-04-19T15:33:18.000Z,29.7
2023-04-19T15:34:35.118Z,29.9
2023-04-19T15:35:50.000Z,30
2023-04-19T15:37:06.000Z,30.3
2023-04-19T15:38:22.000Z,29.9
2023-04-19T15:39:38.000Z,30
2023-04-19T15:40:55.000Z,30.2
2023-04-19T15:42:11.000Z,30.3
2023-04-19T15:43:26.000Z,29.7
2023-04-19T15:44:42.000Z,29.6
2023-04-19T15:45:58.000Z,29.8
2023-04-19T15:47:15.000Z,30.1
2023-04-19T15:48:31.000Z,30.2
2023-04-19T15:49:47.000Z,30.4
2023-04-19T15:51:03.000Z,30.2
2023-04-19T15:52:19.000Z,30.2
2023-04-19T15:53:36.000Z,30.1
2023-04-19T15:54:52.000Z,29.9
2023-04-19T15:56:08.000Z,29.8
2023-04-19T15:57:24.000Z,29.9
2023-04-19T15:58:40.000Z,29.6
2023-04-19T15:59:56.000Z,29.5
2023-04-19T16:01:12.000Z,29.9
2023-04-19T16:02:28.000Z,30.3
2023-04-19T16:03:44.000Z,30.5
2023-04-19T16:05:00.000Z,30.7
2023-04-19T16:06:17.000Z,30.7
2023-04-19T16:07:33.267Z,31
2023-04-19T16:08:49.000Z,30.7
2023-04-19T16:10:05.000Z,30.7
2023-04-19T16:11:21.000Z,30.8
2023-04-19T16:12:38.046Z,30.7
2023-04-19T16:13:54.000Z,30.5
2023-04-19T16:15:10.000Z,30.7
2023-04-19T16:16:25.000Z,31
2023-04-19T16:17:41.000Z,31.1
2023-04-19T16:18:58.000Z,31.1
2023-04-19T16:20:14.000Z,31
2023-04-19T16:21:30.000Z,30.8
2023-04-19T16:22:46.000Z,30.6
2023-04-19T16:24:02.000Z,30.8
2023-04-19T16:25:19.000Z,30.7
2023-04-19T16:26:35.000Z,31
2023-04-19T16:27:51.000Z,31.1
2023-04-19T16:29:07.000Z,31.4
2023-04-19T16:30:23.000Z,31.3
2023-04-19T16:31:40.000Z,31.1
2023-04-19T16:32:55.000Z,30.6
2023-04-19T16:34:11.000Z,30.7
2023-04-19T16:35:27.000Z,30.9
2023-04-19T16:36:43.000Z,31.1
2023-04-19T16:38:00.000Z,31.4
2023-04-19T16:39:16.000Z,31.3
2023-04-19T16:40:32.000Z,31.4
2023-04-19T16:41:48.000Z,31.6
2023-04-19T16:43:04.000Z,31.8
2023-04-19T16:44:21.000Z,31.9
2023-04-19T16:45:37.000Z,31.9
2023-04-19T16:46:53.000Z,32
2023-04-19T16:48:09.000Z,32.1
2023-04-19T16:49:24.000Z,32.4
2023-04-19T16:50:40.938Z,32.5
2023-04-19T16:51:57.000Z,31.9
2023-04-19T16:53:13.000Z,31.7
2023-04-19T16:54:29.000Z,32.3
2023-04-19T16:55:45.000Z,32.3
2023-04-19T16:57:01.000Z,32.2
2023-04-19T16:58:18.000Z,32.2
2023-04-19T16:59:34.000Z,32.4